Time;durP1;ratioP1;P1;durP2;ratioP2;P2;SDS_P1;SDS_P2;PMS_P1;PMS_P2;Temp;Humidity;BMP_temperature;BMP_pressure;BME280_temperature;BME280_humidity;BME280_pressure;Samples;Min_cycle;Max_cycle;Signal;HPM_P1;HPM_P2
2022/05/15 00:00:37;;;;;;;8.02;5.55;;;21.50;97.30;;;;;;5092489;28;20063;-72
2022/05/15 00:03:09;;;;;;;12.18;6.43;;;21.50;97.40;;;;;;5074056;28;20417;-72
2022/05/15 00:05:37;;;;;;;9.15;5.55;;;21.50;97.40;;;;;;5092461;28;20040;-72
2022/05/15 00:08:06;;;;;;;7.43;4.70;;;21.50;97.40;;;;;;5057968;28;20044;-72
2022/05/15 00:10:33;;;;;;;8.25;4.88;;;21.50;97.40;;;;;;5074836;28;20055;-72
2022/05/15 00:13:01;;;;;;;8.90;5.03;;;21.50;97.40;;;;;;5057622;28;20143;-72
2022/05/15 00:15:31;;;;;;;8.27;5.45;;;21.50;97.30;;;;;;5074111;28;20101;-72
2022/05/15 00:17:59;;;;;;;12.40;5.00;;;21.50;97.30;;;;;;5057887;28;20060;-72
2022/05/15 00:20:26;;;;;;;7.25;5.43;;;21.40;97.20;;;;;;5041747;28;20051;-72
2022/05/15 00:22:54;;;;;;;13.10;6.05;;;21.40;97.20;;;;;;5074660;28;20062;-72
2022/05/15 00:25:22;;;;;;;8.48;6.35;;;21.40;97.30;;;;;;5057324;28;20054;-72
2022/05/15 00:27:49;;;;;;;9.43;5.30;;;21.40;97.20;;;;;;5057110;28;20044;-72
2022/05/15 00:30:19;;;;;;;7.38;5.38;;;21.40;97.30;;;;;;5073691;28;20093;-72
2022/05/15 00:32:48;;;;;;;11.63;4.82;;;21.40;97.20;;;;;;5057474;28;20422;-72
2022/05/15 00:35:16;;;;;;;12.00;5.93;;;21.40;97.20;;;;;;5073316;28;20052;-72
2022/05/15 00:37:43;;;;;;;11.10;5.50;;;21.40;97.10;;;;;;5038383;28;20048;-72
2022/05/15 00:40:13;;;;;;;14.50;5.85;;;21.50;97.10;;;;;;5048980;28;20071;-72
2022/05/15 00:42:42;;;;;;;9.20;5.93;;;21.40;97.00;;;;;;5068587;28;20049;-73
2022/05/15 00:45:10;;;;;;;8.32;5.88;;;21.50;97.00;;;;;;5071549;28;20051;-72
2022/05/15 00:47:37;;;;;;;8.85;5.53;;;21.50;97.10;;;;;;5054781;28;20506;-72
2022/05/15 00:50:08;;;;;;;7.93;5.03;;;21.50;97.10;;;;;;5073862;28;20051;-73
2022/05/15 00:52:40;;;;;;;7.47;5.38;;;21.50;97.10;;;;;;5071853;28;20037;-73
2022/05/15 00:55:17;;;;;;;9.75;5.50;;;21.50;97.00;;;;;;5056698;28;20051;-72
2022/05/15 00:57:52;;;;;;;9.90;5.28;;;21.50;97.10;;;;;;5070802;28;20383;-72
2022/05/15 01:00:28;;;;;;;10.30;6.25;;;21.50;97.00;;;;;;5039651;28;20058;-72
2022/05/15 01:03:00;;;;;;;7.82;4.72;;;21.50;97.00;;;;;;5051577;28;20611;-72
2022/05/15 01:05:28;;;;;;;8.90;5.40;;;21.50;96.90;;;;;;5035908;28;20052;-72
2022/05/15 01:07:56;;;;;;;11.43;5.63;;;21.50;96.90;;;;;;5038732;28;20063;-72
2022/05/15 01:10:25;;;;;;;9.50;6.00;;;21.50;96.90;;;;;;5064195;28;20568;-73
2022/05/15 01:12:57;;;;;;;9.70;5.68;;;21.50;96.90;;;;;;5051985;28;20052;-72
2022/05/15 01:15:27;;;;;;;10.55;5.78;;;21.50;96.90;;;;;;5068683;28;20044;-72
2022/05/15 01:17:58;;;;;;;8.52;4.97;;;21.50;96.90;;;;;;5060189;28;20048;-72
2022/05/15 01:20:30;;;;;;;11.18;6.03;;;21.50;96.90;;;;;;5067081;28;20054;-72
2022/05/15 01:22:59;;;;;;;8.45;5.00;;;21.50;96.90;;;;;;5059601;28;20036;-72
2022/05/15 01:25:34;;;;;;;11.77;6.18;;;21.50;96.90;;;;;;5059035;28;20482;-73
2022/05/15 01:28:24;;;;;;;22.88;6.25;;;21.40;96.90;;;;;;5055159;28;20060;-73
2022/05/15 01:30:57;;;;;;;13.90;5.82;;;21.40;97.10;;;;;;5063018;28;20036;-72
2022/05/15 01:33:28;;;;;;;10.80;4.93;;;21.40;97.00;;;;;;5070560;28;20027;-71
2022/05/15 01:36:02;;;;;;;9.30;5.45;;;21.40;97.00;;;;;;5031966;28;20047;-71
2022/05/15 01:38:31;;;;;;;7.43;5.05;;;21.40;97.10;;;;;;5048422;28;20060;-72
2022/05/15 01:41:06;;;;;;;9.07;5.53;;;21.30;97.20;;;;;;5067718;28;20036;-72
2022/05/15 01:43:34;;;;;;;8.80;6.07;;;21.30;97.30;;;;;;5069741;28;20048;-72
2022/05/15 01:46:06;;;;;;;9.38;6.07;;;21.30;97.30;;;;;;5053226;28;20048;-72
2022/05/15 01:48:34;;;;;;;8.18;5.40;;;21.30;97.30;;;;;;5079224;28;20146;-72
2022/05/15 01:51:04;;;;;;;8.68;5.63;;;21.30;97.30;;;;;;5076443;28;20123;-72
2022/05/15 01:53:33;;;;;;;10.38;5.63;;;21.30;97.30;;;;;;5052414;28;20135;-72
2022/05/15 01:56:03;;;;;;;15.13;7.05;;;21.30;97.30;;;;;;5069940;28;20079;-72
2022/05/15 01:58:36;;;;;;;12.15;8.30;;;21.30;97.40;;;;;;5030941;28;20063;-72
2022/05/15 02:01:05;;;;;;;15.07;7.88;;;21.30;97.40;;;;;;5061325;28;20193;-72
2022/05/15 02:03:35;;;;;;;10.85;6.45;;;21.30;97.40;;;;;;5056492;28;20510;-72
2022/05/15 02:06:07;;;;;;;10.85;7.80;;;21.30;97.50;;;;;;5072505;28;20512;-72
2022/05/15 02:08:39;;;;;;;13.73;6.43;;;21.20;97.50;;;;;;5076879;28;20128;-72
2022/05/15 02:11:08;;;;;;;11.18;6.53;;;21.20;97.60;;;;;;5044843;28;20047;-72
2022/05/15 02:13:37;;;;;;;10.70;6.25;;;21.20;97.70;;;;;;5055962;28;20039;-72
2022/05/15 02:16:05;;;;;;;14.80;7.07;;;21.20;97.60;;;;;;5036057;28;20155;-72
2022/05/15 02:18:34;;;;;;;14.95;6.72;;;21.20;97.80;;;;;;5065977;28;20043;-72
2022/05/15 02:21:05;;;;;;;8.10;5.93;;;21.20;97.80;;;;;;5052106;28;20152;-72
2022/05/15 02:23:34;;;;;;;10.65;6.65;;;21.20;97.90;;;;;;5070217;28;20120;-72
2022/05/15 02:26:03;;;;;;;9.90;7.00;;;21.10;98.00;;;;;;5065114;28;20070;-72
2022/05/15 02:28:34;;;;;;;14.95;6.63;;;21.10;98.10;;;;;;5045854;28;20090;-72
2022/05/15 02:31:05;;;;;;;11.77;5.88;;;21.10;98.30;;;;;;5065871;28;20055;-72
2022/05/15 02:33:35;;;;;;;16.75;6.75;;;21.10;98.50;;;;;;5086734;28;20071;-72
2022/05/15 02:36:03;;;;;;;9.55;6.47;;;21.10;98.60;;;;;;5056449;28;20456;-72
2022/05/15 02:38:33;;;;;;;9.15;5.57;;;21.10;98.80;;;;;;5065162;28;20397;-72
2022/05/15 02:41:02;;;;;;;13.55;7.22;;;21.10;98.60;;;;;;5050122;28;20101;-72
2022/05/15 02:43:33;;;;;;;12.80;6.68;;;21.10;98.50;;;;;;5067871;28;20043;-72
2022/05/15 02:46:06;;;;;;;19.60;10.25;;;21.10;98.50;;;;;;5067190;28;20040;-72
2022/05/15 02:51:22;;;;;;;17.65;11.23;;;21.10;98.50;;;;;;5067242;28;20409;-72
2022/05/15 02:53:52;;;;;;;14.93;10.02;;;21.10;98.70;;;;;;5079540;28;20044;-72
2022/05/15 02:56:30;;;;;;;18.30;10.18;;;21.10;98.80;;;;;;5044026;28;20049;-72
2022/05/15 02:59:03;;;;;;;15.48;8.00;;;21.10;98.90;;;;;;5034577;28;20055;-72
2022/05/15 03:01:32;;;;;;;12.38;6.85;;;21.10;98.90;;;;;;5046315;28;20056;-72
2022/05/15 03:04:01;;;;;;;14.63;8.18;;;21.00;99.00;;;;;;5068717;28;20049;-72
2022/05/15 03:06:30;;;;;;;11.98;6.47;;;21.00;99.00;;;;;;5064005;28;20040;-72
2022/05/15 03:09:02;;;;;;;11.02;6.85;;;21.00;99.00;;;;;;5063082;28;20458;-72
2022/05/15 03:11:33;;;;;;;10.55;6.10;;;21.00;99.10;;;;;;5071104;28;20100;-72
2022/05/15 03:14:08;;;;;;;11.55;6.35;;;21.00;99.30;;;;;;5059939;28;20051;-72
2022/05/15 03:16:37;;;;;;;9.77;6.70;;;21.00;99.40;;;;;;5091547;28;20044;-72
2022/05/15 03:19:06;;;;;;;11.63;7.28;;;21.00;99.50;;;;;;5077657;28;20052;-72
2022/05/15 03:21:36;;;;;;;10.15;6.65;;;21.00;99.50;;;;;;5058444;28;20059;-72
2022/05/15 03:24:10;;;;;;;15.10;7.53;;;20.90;99.50;;;;;;5074621;28;20127;-72
2022/05/15 03:26:48;;;;;;;11.52;6.93;;;20.90;99.60;;;;;;5090760;28;20101;-72
2022/05/15 03:29:19;;;;;;;11.60;6.18;;;20.90;99.80;;;;;;5044040;28;20170;-72
2022/05/15 03:31:49;;;;;;;7.97;6.65;;;20.90;99.80;;;;;;5057079;28;20098;-72
2022/05/15 03:34:17;;;;;;;11.63;7.47;;;20.90;99.90;;;;;;5064412;28;20122;-72
2022/05/15 03:36:51;;;;;;;12.02;8.18;;;20.90;99.80;;;;;;5075290;28;20070;-72
2022/05/15 03:39:21;;;;;;;20.63;13.65;;;20.90;99.70;;;;;;5043151;28;20529;-73
2022/05/15 03:41:50;;;;;;;24.23;16.45;;;20.90;99.60;;;;;;5039108;28;20135;-72
2022/05/15 03:44:19;;;;;;;20.52;14.27;;;20.90;99.70;;;;;;5064093;28;20054;-72
2022/05/15 03:46:47;;;;;;;18.85;13.82;;;20.90;99.70;;;;;;5076096;28;20047;-72
2022/05/15 03:49:16;;;;;;;16.92;11.77;;;20.90;99.70;;;;;;5094630;28;20091;-72
2022/05/15 03:51:46;;;;;;;17.17;12.00;;;21.00;99.80;;;;;;5049856;28;20547;-72
2022/05/15 03:54:19;;;;;;;18.15;12.63;;;21.00;99.90;;;;;;5068607;28;20078;-72
2022/05/15 03:56:50;;;;;;;21.27;14.60;;;21.00;99.90;;;;;;5056514;28;20051;-72
2022/05/15 03:59:31;;;;;;;19.88;12.43;;;21.00;99.90;;;;;;5044542;28;20106;-72
2022/05/15 04:02:07;;;;;;;17.13;9.60;;;21.10;99.90;;;;;;5061260;28;20044;-72
2022/05/15 04:04:36;;;;;;;;;;;21.10;99.90;;;;;;5089771;28;20078;-72
2022/05/15 04:07:06;;;;;;;11.98;7.28;;;21.10;99.90;;;;;;5076311;28;20018;-72
2022/05/15 04:09:40;;;;;;;12.73;7.28;;;21.20;99.90;;;;;;5058040;28;20139;-72
2022/05/15 04:12:13;;;;;;;14.00;8.20;;;21.20;99.90;;;;;;5070346;28;20047;-72
2022/05/15 04:14:45;;;;;;;10.80;8.00;;;21.30;99.90;;;;;;5075699;28;20059;-72
2022/05/15 04:17:14;;;;;;;11.50;7.18;;;21.30;99.90;;;;;;5063304;28;20036;-72
2022/05/15 04:19:43;;;;;;;12.85;7.78;;;21.40;99.90;;;;;;5052954;28;20114;-72
2022/05/15 04:22:13;;;;;;;11.60;6.03;;;21.50;99.90;;;;;;5052256;28;20477;-72
2022/05/15 04:24:42;;;;;;;8.55;6.53;;;21.50;99.90;;;;;;5093488;28;20046;-72
2022/05/15 04:27:11;;;;;;;10.45;7.15;;;21.60;99.90;;;;;;5048368;28;20060;-72
2022/05/15 04:29:39;;;;;;;14.13;6.35;;;21.70;99.80;;;;;;5067106;28;20052;-72
2022/05/15 04:32:08;;;;;;;8.57;5.97;;;21.90;99.70;;;;;;5058500;28;20055;-73
2022/05/15 04:34:36;;;;;;;10.85;6.60;;;22.00;99.60;;;;;;5073903;28;20157;-72
2022/05/15 04:37:05;;;;;;;11.38;6.57;;;22.10;99.60;;;;;;5107264;28;20046;-72
2022/05/15 04:39:34;;;;;;;11.48;6.82;;;22.20;99.50;;;;;;5090341;28;20047;-72
2022/05/15 04:42:07;;;;;;;14.90;7.82;;;22.30;99.20;;;;;;5065007;28;20109;-72
2022/05/15 04:44:39;;;;;;;12.43;7.68;;;22.40;99.10;;;;;;5072963;28;20060;-72
2022/05/15 04:47:08;;;;;;;11.27;6.70;;;22.50;98.90;;;;;;5062261;28;20055;-72
2022/05/15 04:49:39;;;;;;;9.07;6.28;;;22.60;98.80;;;;;;5049476;28;20537;-72
2022/05/15 04:52:11;;;;;;;11.65;7.00;;;22.60;98.70;;;;;;5036926;28;20234;-72
2022/05/15 04:54:42;;;;;;;9.45;6.20;;;22.70;98.60;;;;;;5052706;28;20072;-72
2022/05/15 04:57:14;;;;;;;11.05;5.70;;;22.80;98.40;;;;;;5089088;28;20102;-72
2022/05/15 04:59:45;;;;;;;8.30;6.63;;;22.90;98.40;;;;;;5080688;28;20052;-72
2022/05/15 05:02:13;;;;;;;11.65;5.72;;;23.00;98.30;;;;;;5052254;28;20052;-72
2022/05/15 05:04:42;;;;;;;8.55;5.60;;;23.10;98.10;;;;;;5069818;28;20424;-72
2022/05/15 05:07:13;;;;;;;9.88;5.78;;;23.20;98.00;;;;;;5073282;28;20770;-72
2022/05/15 05:09:41;;;;;;;7.80;5.25;;;23.20;97.70;;;;;;5061228;28;20048;-72
2022/05/15 05:12:10;;;;;;;13.60;5.47;;;23.40;97.70;;;;;;5073894;28;20044;-71
2022/05/15 05:14:39;;;;;;;7.68;5.57;;;23.50;97.60;;;;;;5043690;28;20067;-71
2022/05/15 05:17:10;;;;;;;8.48;5.85;;;23.50;97.20;;;;;;5073976;28;20044;-72
2022/05/15 05:19:42;;;;;;;9.52;5.72;;;23.70;96.90;;;;;;5055932;28;20073;-71
2022/05/15 05:22:10;;;;;;;8.43;5.28;;;23.80;96.80;;;;;;5062489;28;20049;-72
2022/05/15 05:24:42;;;;;;;11.98;5.88;;;23.90;96.50;;;;;;5079352;28;20048;-72
2022/05/15 05:27:10;;;;;;;7.60;5.70;;;24.00;96.30;;;;;;5075090;28;20335;-72
2022/05/15 05:29:39;;;;;;;7.60;5.45;;;24.10;96.20;;;;;;5083393;28;20039;-72
2022/05/15 05:32:08;;;;;;;9.98;6.35;;;24.20;96.00;;;;;;5074635;28;20508;-72
2022/05/15 05:34:37;;;;;;;9.20;5.38;;;24.40;95.90;;;;;;5078372;28;20043;-72
2022/05/15 05:37:08;;;;;;;7.10;5.28;;;24.40;95.60;;;;;;5072990;28;20058;-72
2022/05/15 05:39:37;;;;;;;9.98;5.68;;;24.50;95.50;;;;;;5065238;28;20063;-71
2022/05/15 05:42:07;;;;;;;7.47;5.07;;;24.60;95.40;;;;;;5061302;28;20187;-72
2022/05/15 05:44:36;;;;;;;6.38;5.10;;;24.70;95.10;;;;;;5059036;28;20043;-72
2022/05/15 05:47:06;;;;;;;12.38;5.65;;;24.80;94.90;;;;;;5087211;28;20039;-72
2022/05/15 05:49:36;;;;;;;8.25;5.22;;;24.90;94.60;;;;;;5055738;28;20051;-72
2022/05/15 05:52:05;;;;;;;7.75;4.30;;;25.10;94.60;;;;;;5069643;28;20132;-74
2022/05/15 05:54:36;;;;;;;6.85;4.95;;;25.20;94.30;;;;;;5071841;28;20182;-72
2022/05/15 05:57:05;;;;;;;5.88;4.50;;;25.30;93.90;;;;;;5074612;28;20040;-72
2022/05/15 05:59:36;;;;;;;8.98;5.20;;;25.40;93.60;;;;;;5076929;28;20036;-73
2022/05/15 06:02:06;;;;;;;7.90;4.95;;;25.40;93.40;;;;;;5033744;28;20132;-72
2022/05/15 06:04:44;;;;;;;8.40;4.65;;;25.50;93.20;;;;;;5055729;28;20101;-72
2022/05/15 06:07:18;;;;;;;7.57;4.63;;;25.60;93.30;;;;;;5071071;28;20051;-72
2022/05/15 06:09:49;;;;;;;6.55;4.50;;;25.70;93.10;;;;;;5066325;28;20033;-72
2022/05/15 06:12:22;;;;;;;7.85;4.35;;;25.90;93.00;;;;;;5054062;28;20043;-71
2022/05/15 06:14:52;;;;;;;8.48;4.60;;;26.10;92.90;;;;;;5062527;28;20062;-71
2022/05/15 06:17:23;;;;;;;7.63;3.80;;;26.30;92.60;;;;;;5072270;28;20416;-72
2022/05/15 06:19:52;;;;;;;7.55;3.88;;;26.40;92.40;;;;;;5080133;28;20371;-71
2022/05/15 06:22:22;;;;;;;8.88;4.32;;;26.40;92.40;;;;;;5041498;28;20505;-71
2022/05/15 06:24:51;;;;;;;7.32;3.75;;;26.50;92.30;;;;;;5060029;28;20041;-71
2022/05/15 06:27:20;;;;;;;7.60;4.03;;;26.70;92.30;;;;;;5056455;28;20648;-71
2022/05/15 06:29:51;;;;;;;5.90;4.07;;;26.80;92.10;;;;;;5040204;28;20422;-71
2022/05/15 06:32:19;;;;;;;7.65;4.10;;;26.80;91.70;;;;;;5057822;28;20044;-72
2022/05/15 06:34:48;;;;;;;7.57;4.07;;;26.90;91.70;;;;;;5048901;28;20063;-71
2022/05/15 06:37:16;;;;;;;8.68;4.70;;;26.90;91.30;;;;;;5057676;28;20466;-72
2022/05/15 06:39:44;;;;;;;5.38;3.80;;;26.90;91.30;;;;;;5063670;28;20060;-71
2022/05/15 06:42:14;;;;;;;7.38;3.90;;;27.00;91.00;;;;;;5034304;28;20399;-72
2022/05/15 06:44:43;;;;;;;7.32;4.65;;;27.10;90.90;;;;;;5057175;28;20052;-72
2022/05/15 06:47:11;;;;;;;5.15;3.67;;;27.20;90.60;;;;;;5078011;28;20048;-72
2022/05/15 06:49:40;;;;;;;8.25;3.78;;;27.20;90.30;;;;;;5070153;28;20370;-71
2022/05/15 06:52:09;;;;;;;7.22;4.28;;;27.10;90.20;;;;;;5055548;28;20051;-71
2022/05/15 06:54:37;;;;;;;8.38;3.75;;;27.20;90.10;;;;;;5071357;28;20108;-72
2022/05/15 07:00:00;;;;;;;8.98;4.97;;;27.50;90.00;;;;;;5070548;28;20070;-71
2022/05/15 07:02:30;;;;;;;8.20;4.07;;;27.60;89.30;;;;;;5051623;28;20514;-71
2022/05/15 07:04:58;;;;;;;7.50;3.95;;;27.60;89.10;;;;;;5064481;28;20063;-71
2022/05/15 07:07:26;;;;;;;8.85;4.45;;;27.70;89.20;;;;;;5064462;28;20043;-71
2022/05/15 07:09:53;;;;;;;6.93;3.25;;;27.70;89.00;;;;;;5051594;28;20051;-71
2022/05/15 07:12:21;;;;;;;5.13;3.42;;;27.80;88.00;;;;;;5072555;28;20105;-71
2022/05/15 07:14:48;;;;;;;6.25;3.40;;;27.80;87.30;;;;;;5056726;28;20098;-72
2022/05/15 07:17:16;;;;;;;7.35;3.40;;;27.90;87.10;;;;;;5054552;28;20685;-72
2022/05/15 07:19:44;;;;;;;6.13;3.78;;;27.90;87.00;;;;;;5056409;28;20122;-71
2022/05/15 07:22:14;;;;;;;6.22;3.67;;;28.00;86.80;;;;;;5055820;28;20134;-72
2022/05/15 07:24:41;;;;;;;5.25;3.08;;;28.00;87.30;;;;;;5054539;28;20056;-72
2022/05/15 07:27:10;;;;;;;6.60;3.72;;;28.00;86.40;;;;;;5051394;28;20419;-71
2022/05/15 07:29:37;;;;;;;5.53;3.05;;;28.00;86.80;;;;;;5068951;28;20039;-72
2022/05/15 07:32:07;;;;;;;4.53;3.45;;;28.20;86.50;;;;;;5064922;28;20389;-71
2022/05/15 07:34:38;;;;;;;5.63;3.38;;;28.30;85.80;;;;;;5078017;28;20044;-71
2022/05/15 07:37:07;;;;;;;7.05;3.55;;;28.40;84.90;;;;;;5082299;28;20046;-72
2022/05/15 07:39:35;;;;;;;11.98;4.32;;;28.60;85.40;;;;;;5068269;28;20577;-72
2022/05/15 07:42:05;;;;;;;5.95;3.47;;;28.60;85.90;;;;;;5057401;28;20035;-71
2022/05/15 07:44:32;;;;;;;6.15;3.30;;;28.70;85.70;;;;;;5054582;28;20047;-72
2022/05/15 07:47:00;;;;;;;5.72;3.47;;;28.80;85.60;;;;;;5056180;28;20138;-72
2022/05/15 07:49:28;;;;;;;5.50;3.80;;;29.00;84.70;;;;;;5041112;28;20126;-72
2022/05/15 07:51:56;;;;;;;5.30;3.97;;;29.00;84.40;;;;;;5074796;28;20486;-72
2022/05/15 07:54:24;;;;;;;5.55;4.10;;;29.00;84.70;;;;;;5073848;28;20044;-72
2022/05/15 07:56:51;;;;;;;5.88;3.75;;;29.20;84.30;;;;;;5074782;28;20131;-72
2022/05/15 07:59:19;;;;;;;6.20;3.30;;;29.20;83.80;;;;;;5057234;28;20058;-71
2022/05/15 08:01:47;;;;;;;5.85;3.42;;;29.30;83.80;;;;;;5054549;28;20089;-72
2022/05/15 08:04:15;;;;;;;5.65;2.90;;;29.20;83.90;;;;;;5041388;28;20141;-72
2022/05/15 08:09:28;;;;;;;5.90;3.58;;;29.10;84.20;;;;;;5071198;28;20486;-72
2022/05/15 08:11:59;;;;;;;5.70;4.20;;;29.20;83.60;;;;;;5058245;28;20059;-72
2022/05/15 08:14:29;;;;;;;5.43;3.63;;;29.30;83.30;;;;;;5057493;28;20051;-71
2022/05/15 08:16:57;;;;;;;5.65;3.50;;;29.30;83.40;;;;;;5074615;28;20113;-72
2022/05/15 08:24:57;;;;;;;;;;;29.40;82.50;;;;;;5085113;28;20127;-71
2022/05/15 08:27:25;;;;;;;6.15;3.40;;;29.40;82.70;;;;;;5071981;28;19955;-74
2022/05/15 08:29:53;;;;;;;8.18;4.43;;;29.50;82.00;;;;;;5055691;28;20044;-72
2022/05/15 08:32:21;;;;;;;4.97;3.53;;;29.60;81.60;;;;;;5055639;28;20044;-72
2022/05/15 08:34:49;;;;;;;6.88;4.00;;;29.60;81.00;;;;;;5051054;28;20052;-72
2022/05/15 08:37:16;;;;;;;5.25;4.25;;;29.50;80.80;;;;;;5057065;28;20054;-72
2022/05/15 08:39:44;;;;;;;6.63;4.80;;;29.50;81.30;;;;;;5087666;28;20044;-72
2022/05/15 08:42:23;;;;;;;6.90;4.45;;;29.50;81.60;;;;;;5110547;28;20039;-73
2022/05/15 08:44:57;;;;;;;6.10;4.82;;;29.60;81.70;;;;;;5088652;28;20052;-71
2022/05/15 08:47:38;;;;;;;8.75;5.57;;;29.70;81.50;;;;;;5090541;28;20533;-71
2022/05/15 08:50:12;;;;;;;9.93;4.43;;;29.80;81.20;;;;;;5076355;28;20043;-71
2022/05/15 08:53:09;;;;;;;8.65;4.43;;;29.80;81.30;;;;;;5093562;28;20447;-71
2022/05/15 08:55:42;;;;;;;12.77;4.53;;;29.90;81.40;;;;;;5056178;28;20058;-71
2022/05/15 08:58:24;;;;;;;8.10;4.50;;;29.90;81.40;;;;;;5073115;28;20182;-71
2022/05/15 09:00:53;;;;;;;5.70;4.30;;;30.00;81.20;;;;;;5029118;28;20513;-70
2022/05/15 09:03:31;;;;;;;8.68;4.28;;;30.00;81.20;;;;;;5075344;28;20055;-70
2022/05/15 09:06:22;;;;;;;6.55;3.83;;;30.00;81.40;;;;;;5091155;28;20553;-71
2022/05/15 09:09:27;;;;;;;6.47;3.90;;;29.90;81.70;;;;;;5058429;28;20566;-70
2022/05/15 09:12:18;;;;;;;8.23;4.15;;;29.80;81.40;;;;;;5054800;28;20048;-68
2022/05/15 09:15:13;;;;;;;6.25;4.32;;;29.70;81.70;;;;;;5079358;28;20101;-67
2022/05/15 09:17:57;;;;;;;7.45;4.20;;;29.40;81.70;;;;;;5064424;28;20486;-69
2022/05/15 09:20:24;;;;;;;5.97;3.30;;;29.50;82.10;;;;;;5086841;28;20115;-69
2022/05/15 09:23:01;;;;;;;7.03;3.80;;;29.30;82.00;;;;;;5087094;28;20400;-68
2022/05/15 09:25:38;;;;;;;6.40;3.60;;;29.30;82.00;;;;;;5059668;28;20506;-69
2022/05/15 09:28:09;;;;;;;5.47;3.40;;;29.30;81.40;;;;;;5091770;28;20117;-70
2022/05/15 09:30:41;;;;;;;6.63;3.30;;;29.20;81.90;;;;;;5091302;28;20044;-71
2022/05/15 09:33:31;;;;;;;6.40;4.55;;;29.30;81.70;;;;;;5073413;28;20047;-70
2022/05/15 09:36:30;;;;;;;6.22;3.47;;;29.20;81.70;;;;;;5107872;28;20051;-70
2022/05/15 09:39:24;;;;;;;6.30;3.38;;;29.30;81.50;;;;;;5051042;28;20084;-70
2022/05/15 09:44:57;;;;;;;7.15;3.92;;;29.30;81.60;;;;;;5056015;28;20134;-69
2022/05/15 09:47:31;;;;;;;5.60;3.08;;;29.30;81.20;;;;;;5068038;28;20162;-68
2022/05/15 09:49:59;;;;;;;6.65;4.18;;;29.30;79.80;;;;;;5057467;28;20417;-70
2022/05/15 09:52:35;;;;;;;7.75;3.42;;;29.20;80.40;;;;;;5058241;28;20580;-69
2022/05/15 09:55:10;;;;;;;10.13;3.50;;;29.30;81.10;;;;;;5056237;28;20047;-69
2022/05/15 09:57:38;;;;;;;;;;;29.20;79.30;;;;;;5088306;28;20076;-69
2022/05/15 10:00:11;;;;;;;6.60;3.65;;;29.30;80.60;;;;;;5067563;28;20281;-70
2022/05/15 10:03:17;;;;;;;5.22;3.55;;;29.40;79.80;;;;;;5065128;28;20047;-69
2022/05/15 10:06:01;;;;;;;5.38;2.97;;;29.40;78.90;;;;;;5029193;28;20048;-69
2022/05/15 10:08:30;;;;;;;7.53;3.53;;;29.40;77.80;;;;;;5063314;28;20036;-70
2022/05/15 10:11:01;;;;;;;5.50;3.47;;;29.30;78.20;;;;;;5102319;28;20059;-69
2022/05/15 10:13:28;;;;;;;6.38;3.70;;;29.30;78.70;;;;;;5096177;28;20371;-69
2022/05/15 10:16:06;;;;;;;6.53;3.63;;;29.30;79.00;;;;;;5053282;28;20059;-70
2022/05/15 10:19:09;;;;;;;7.45;4.25;;;29.30;78.40;;;;;;5090210;28;20062;-69
2022/05/15 10:21:43;;;;;;;6.72;3.63;;;29.30;79.10;;;;;;5089325;28;20034;-70
2022/05/15 10:24:35;;;;;;;5.75;3.33;;;29.40;78.60;;;;;;5109142;28;20056;-71
2022/05/15 10:27:12;;;;;;;7.68;3.70;;;29.40;78.30;;;;;;5097127;28;20048;-69
2022/05/15 10:30:14;;;;;;;8.52;4.13;;;29.50;77.80;;;;;;5054915;28;20059;-71
2022/05/15 10:32:56;;;;;;;5.68;3.70;;;29.70;77.40;;;;;;5054762;28;20174;-70
2022/05/15 10:35:56;;;;;;;7.55;4.88;;;29.70;77.40;;;;;;5088288;28;20044;-69
2022/05/15 10:38:36;;;;;;;5.18;3.58;;;29.60;77.10;;;;;;5064613;28;20058;-69
2022/05/15 10:41:23;;;;;;;7.45;3.75;;;29.50;78.20;;;;;;5070769;28;20452;-69
2022/05/15 10:44:11;;;;;;;5.82;3.70;;;29.50;78.10;;;;;;5055198;28;20044;-69
2022/05/15 10:47:03;;;;;;;7.00;4.35;;;29.60;78.00;;;;;;5037349;28;20092;-70
2022/05/15 10:49:39;;;;;;;6.28;4.20;;;29.70;77.90;;;;;;5055184;28;20071;-69
2022/05/15 10:52:09;;;;;;;;;;;29.50;78.40;;;;;;5038648;28;20052;-70
2022/05/15 10:58:02;;;;;;;9.27;3.40;;;29.40;78.00;;;;;;5089460;28;20052;-70
2022/05/15 11:01:11;;;;;;;5.15;3.22;;;29.20;78.40;;;;;;5070348;28;20047;-70
2022/05/15 11:04:00;;;;;;;6.05;3.72;;;29.20;78.50;;;;;;5066285;28;20788;-69
2022/05/15 11:06:39;;;;;;;5.07;3.20;;;29.10;78.60;;;;;;5054917;28;20051;-70
2022/05/15 11:09:16;;;;;;;8.27;4.60;;;29.20;78.60;;;;;;5071954;28;20047;-70
2022/05/15 11:12:11;;;;;;;;;;;29.20;79.00;;;;;;5073624;28;20052;-69
2022/05/15 11:14:45;;;;;;;5.25;3.33;;;29.30;79.10;;;;;;5055365;28;19920;-69
2022/05/15 11:17:37;;;;;;;7.40;4.18;;;29.30;78.90;;;;;;5075716;28;20044;-70
2022/05/15 11:20:16;;;;;;;8.18;3.88;;;29.30;79.20;;;;;;5093606;28;20044;-69
2022/05/15 11:22:48;;;;;;;7.25;3.58;;;29.30;78.70;;;;;;5058823;28;20050;-70
2022/05/15 11:25:23;;;;;;;6.47;4.22;;;29.20;78.50;;;;;;5059188;28;20126;-70
2022/05/15 11:27:55;;;;;;;6.65;4.13;;;29.20;78.90;;;;;;5075471;28;20044;-69
2022/05/15 11:30:32;;;;;;;5.60;3.45;;;29.30;78.70;;;;;;5058932;28;20044;-69
2022/05/15 11:33:08;;;;;;;7.55;4.35;;;29.20;78.90;;;;;;5058415;28;20052;-69
2022/05/15 11:36:00;;;;;;;6.72;3.75;;;29.00;79.50;;;;;;5058535;28;20044;-69
2022/05/15 11:38:29;;;;;;;8.73;3.83;;;28.80;79.50;;;;;;5058592;28;20055;-69
2022/05/15 11:40:57;;;;;;;5.55;3.55;;;28.70;79.80;;;;;;5075017;28;20036;-70
2022/05/15 11:43:30;;;;;;;6.57;3.70;;;28.70;80.20;;;;;;5058415;28;20058;-69
2022/05/15 11:45:59;;;;;;;6.53;3.72;;;28.70;80.40;;;;;;5058531;28;20067;-69
2022/05/15 11:48:30;;;;;;;7.05;3.97;;;28.60;80.30;;;;;;5074559;28;20048;-70
2022/05/15 11:51:04;;;;;;;7.35;4.38;;;28.50;80.30;;;;;;5058941;28;20600;-70
2022/05/15 11:53:40;;;;;;;7.22;4.05;;;28.50;81.00;;;;;;5075287;28;20074;-70
2022/05/15 11:56:31;;;;;;;;;;;28.40;80.90;;;;;;5070929;28;20078;-69
2022/05/15 11:59:15;;;;;;;5.68;3.85;;;28.40;81.00;;;;;;5069903;28;20425;-69
2022/05/15 12:01:55;;;;;;;8.55;4.05;;;28.40;80.60;;;;;;5058437;28;20097;-70
2022/05/15 12:04:34;;;;;;;6.10;4.35;;;28.60;80.60;;;;;;5058429;28;20105;-69
2022/05/15 12:07:02;;;;;;;8.50;4.13;;;28.60;80.30;;;;;;5074490;28;20040;-69
2022/05/15 12:09:41;;;;;;;6.10;4.03;;;28.60;80.20;;;;;;5074061;28;20551;-70
2022/05/15 12:12:23;;;;;;;4.57;3.35;;;28.60;80.40;;;;;;5057879;28;20058;-70
2022/05/15 12:15:20;;;;;;;6.43;3.95;;;28.50;80.20;;;;;;5058134;28;20036;-69
2022/05/15 12:17:59;;;;;;;7.65;4.47;;;28.30;80.60;;;;;;5074400;28;20051;-71
2022/05/15 12:20:29;;;;;;;7.43;3.75;;;28.10;81.10;;;;;;5092306;28;20070;-69
2022/05/15 12:23:22;;;;;;;6.45;3.85;;;28.20;81.40;;;;;;5057881;28;20406;-69
2022/05/15 12:26:00;;;;;;;4.43;3.08;;;28.10;81.20;;;;;;5091768;28;20525;-70
2022/05/15 12:28:52;;;;;;;8.40;4.53;;;28.10;81.10;;;;;;5057258;28;20046;-70
2022/05/15 12:31:37;;;;;;;6.60;3.13;;;28.10;81.30;;;;;;5092540;28;20489;-69
2022/05/15 12:34:19;;;;;;;5.10;3.65;;;28.10;81.50;;;;;;5056960;28;20050;-70
2022/05/15 12:37:06;;;;;;;4.35;3.40;;;28.10;81.20;;;;;;5092000;28;20623;-69
2022/05/15 12:39:39;;;;;;;12.13;4.20;;;28.20;81.40;;;;;;5057698;28;20615;-69
2022/05/15 12:42:12;;;;;;;5.85;4.70;;;28.30;81.00;;;;;;5057050;28;20513;-70
2022/05/15 12:44:42;;;;;;;;;;;28.30;80.70;;;;;;5055994;28;20048;-70
2022/05/15 12:47:24;;;;;;;5.38;3.85;;;28.40;80.60;;;;;;5071570;28;20450;-69
2022/05/15 12:50:00;;;;;;;6.65;3.63;;;28.40;80.30;;;;;;5071557;28;20473;-69
2022/05/15 12:52:30;;;;;;;4.50;3.30;;;28.50;80.00;;;;;;5038722;28;20093;-69
2022/05/15 12:55:05;;;;;;;8.75;4.30;;;28.50;79.40;;;;;;5091235;28;20619;-69
2022/05/15 12:57:44;;;;;;;5.00;3.53;;;28.50;79.00;;;;;;5091559;28;20080;-69
2022/05/15 13:00:15;;;;;;;6.57;3.30;;;28.50;78.80;;;;;;5073611;28;20118;-69
2022/05/15 13:02:44;;;;;;;7.50;4.00;;;28.40;78.80;;;;;;5073238;28;20056;-69
2022/05/15 13:05:24;;;;;;;6.05;4.15;;;28.50;78.70;;;;;;5053534;28;20047;-69
2022/05/15 13:08:01;;;;;;;5.65;3.63;;;28.50;79.00;;;;;;5053290;28;20500;-69
2022/05/15 13:10:32;;;;;;;6.20;3.78;;;28.50;79.20;;;;;;5053850;28;20044;-69
2022/05/15 13:13:18;;;;;;;8.43;3.95;;;28.60;79.00;;;;;;5053071;28;20498;-69
2022/05/15 13:15:51;;;;;;;5.25;3.78;;;28.60;78.40;;;;;;5071093;28;20099;-69
2022/05/15 13:18:20;;;;;;;6.63;3.70;;;28.70;78.50;;;;;;5036720;28;20483;-70
2022/05/15 13:20:53;;;;;;;5.97;3.97;;;28.70;78.30;;;;;;5052661;28;20047;-70
2022/05/15 13:23:36;;;;;;;7.15;4.07;;;28.70;77.90;;;;;;5053435;28;20107;-70
2022/05/15 13:26:08;;;;;;;6.63;4.43;;;28.70;78.00;;;;;;5069539;28;20049;-70
2022/05/15 13:28:36;;;;;;;7.50;3.80;;;28.60;78.50;;;;;;5052649;28;20052;-70
2022/05/15 13:31:04;;;;;;;6.28;3.65;;;28.60;78.60;;;;;;5069508;28;20067;-69
2022/05/15 13:33:34;;;;;;;6.30;3.30;;;28.60;78.70;;;;;;5051855;28;20060;-71
2022/05/15 13:36:02;;;;;;;5.30;3.45;;;28.60;78.70;;;;;;5052984;28;20121;-70